Tarrant West's Hourly Summary for Friday, May 4, 2018
Hour Temp
(f)
RH
(%)
Solar Rad.
(MJ/m2)
Rainfall
(in)
Wind
(mph)
5/4/2018 12:00 AM 70 97 0 0 6.1
5/4/2018 1:00 AM 72 89 0 0 10.5
5/4/2018 2:00 AM 72 87 0 0 10.28
5/4/2018 3:00 AM 71 88 0 0 11.55
5/4/2018 4:00 AM 70 89 0 0 9.63
5/4/2018 5:00 AM 70 91 0 0 7.05
5/4/2018 6:00 AM 69 92 0 0.08 9.8
5/4/2018 7:00 AM 67 89 0.02 0.05 7.88
5/4/2018 8:00 AM 65 92 0.06 0.01 3.67
5/4/2018 9:00 AM 65 94 0.09 0.06 4.05
5/4/2018 10:00 AM 63 91 0.11 0.1 5.1
5/4/2018 11:00 AM 63 90 0.12 0.13 4.6
5/4/2018 12:00 PM 62 89 0.21 0.06 14.18
5/4/2018 1:00 PM 63 86 0.5 0 5.35
5/4/2018 2:00 PM 64 85 0.77 0 5.7
5/4/2018 3:00 PM 67 74 1.54 0 5.9
5/4/2018 4:00 PM 68 71 1.13 0 3.42
5/4/2018 5:00 PM 70 67 1.53 0 4.78
5/4/2018 6:00 PM 69 68 0.78 0 4.83
5/4/2018 7:00 PM 69 70 0.31 0 3.7
5/4/2018 8:00 PM 66 77 0.04 0 1.4
5/4/2018 9:00 PM 65 79 0 0 2.27
5/4/2018 10:00 PM 63 84 0 0 3.55
5/4/2018 11:00 PM 62 89 0 0 2.27
Data Summary 66 84 7.21 0.49 6.15